sensor_id;sensor_type;location;lat;lon;timestamp;temperature;humidity
3778;DHT22;1904;50.076;8.660;2023-09-07T00:01:55;16.40;1.00
3778;DHT22;1904;50.076;8.660;2023-09-07T00:04:29;16.30;1.00
3778;DHT22;1904;50.076;8.660;2023-09-07T00:07:11;16.30;1.00
3778;DHT22;1904;50.076;8.660;2023-09-07T00:09:52;16.20;1.00
3778;DHT22;1904;50.076;8.660;2023-09-07T00:12:29;16.20;1.00
3778;DHT22;1904;50.076;8.660;2023-09-07T00:14:59;16.20;1.00
3778;DHT22;1904;50.076;8.660;2023-09-07T00:17:25;16.10;1.00
3778;DHT22;1904;50.076;8.660;2023-09-07T00:19:54;16.10;1.00
3778;DHT22;1904;50.076;8.660;2023-09-07T00:22:29;16.00;1.00
3778;DHT22;1904;50.076;8.660;2023-09-07T00:24:54;16.00;1.00
3778;DHT22;1904;50.076;8.660;2023-09-07T00:27:35;16.00;1.00
3778;DHT22;1904;50.076;8.660;2023-09-07T00:30:22;16.00;1.00
3778;DHT22;1904;50.076;8.660;2023-09-07T00:33:22;15.90;1.00
3778;DHT22;1904;50.076;8.660;2023-09-07T00:35:53;15.90;1.00
3778;DHT22;1904;50.076;8.660;2023-09-07T00:38:35;15.90;1.00
3778;DHT22;1904;50.076;8.660;2023-09-07T00:41:17;15.90;1.00
3778;DHT22;1904;50.076;8.660;2023-09-07T00:43:53;15.80;1.00
3778;DHT22;1904;50.076;8.660;2023-09-07T00:46:40;15.80;1.00
3778;DHT22;1904;50.076;8.660;2023-09-07T00:49:24;15.80;1.00
3778;DHT22;1904;50.076;8.660;2023-09-07T00:52:05;15.80;1.00
3778;DHT22;1904;50.076;8.660;2023-09-07T00:54:42;15.70;1.00
3778;DHT22;1904;50.076;8.660;2023-09-07T00:57:17;15.90;1.00
3778;DHT22;1904;50.076;8.660;2023-09-07T01:00:10;15.80;1.00
3778;DHT22;1904;50.076;8.660;2023-09-07T01:02:58;15.60;1.00
3778;DHT22;1904;50.076;8.660;2023-09-07T01:09:06;15.60;1.00
3778;DHT22;1904;50.076;8.660;2023-09-07T01:11:37;15.40;1.00
3778;DHT22;1904;50.076;8.660;2023-09-07T01:14:05;15.50;1.00
3778;DHT22;1904;50.076;8.660;2023-09-07T01:16:52;15.40;1.00
3778;DHT22;1904;50.076;8.660;2023-09-07T01:19:46;15.30;1.00
3778;DHT22;1904;50.076;8.660;2023-09-07T01:22:40;15.10;1.00
3778;DHT22;1904;50.076;8.660;2023-09-07T01:25:11;15.30;1.00
3778;DHT22;1904;50.076;8.660;2023-09-07T01:27:41;15.20;1.00
3778;DHT22;1904;50.076;8.660;2023-09-07T01:30:07;15.30;1.00
3778;DHT22;1904;50.076;8.660;2023-09-07T01:32:35;15.00;1.00
3778;DHT22;1904;50.076;8.660;2023-09-07T01:35:01;15.10;1.00
3778;DHT22;1904;50.076;8.660;2023-09-07T01:37:30;15.00;1.00
3778;DHT22;1904;50.076;8.660;2023-09-07T01:40:11;15.00;1.00
3778;DHT22;1904;50.076;8.660;2023-09-07T01:42:41;14.90;1.00
3778;DHT22;1904;50.076;8.660;2023-09-07T01:45:11;14.90;1.00
3778;DHT22;1904;50.076;8.660;2023-09-07T01:47:53;14.80;1.00
3778;DHT22;1904;50.076;8.660;2023-09-07T01:50:23;14.80;1.00
3778;DHT22;1904;50.076;8.660;2023-09-07T01:52:53;14.80;1.00
3778;DHT22;1904;50.076;8.660;2023-09-07T01:58:41;14.60;1.00
3778;DHT22;1904;50.076;8.660;2023-09-07T02:01:06;14.60;1.00
3778;DHT22;1904;50.076;8.660;2023-09-07T02:03:35;14.60;1.00
3778;DHT22;1904;50.076;8.660;2023-09-07T02:06:05;14.50;1.00
3778;DHT22;1904;50.076;8.660;2023-09-07T02:08:41;14.50;1.00
3778;DHT22;1904;50.076;8.660;2023-09-07T02:14:29;14.40;1.00
3778;DHT22;1904;50.076;8.660;2023-09-07T02:20:11;14.40;1.00
3778;DHT22;1904;50.076;8.660;2023-09-07T02:22:41;14.30;1.00
3778;DHT22;1904;50.076;8.660;2023-09-07T02:25:11;14.40;1.00
3778;DHT22;1904;50.076;8.660;2023-09-07T02:27:37;14.30;1.00
3778;DHT22;1904;50.076;8.660;2023-09-07T02:30:05;14.30;1.00
3778;DHT22;1904;50.076;8.660;2023-09-07T02:32:42;14.30;1.00
3778;DHT22;1904;50.076;8.660;2023-09-07T02:35:23;14.30;1.00
3778;DHT22;1904;50.076;8.660;2023-09-07T02:37:59;14.30;1.00
3778;DHT22;1904;50.076;8.660;2023-09-07T02:40:46;14.30;1.00
3778;DHT22;1904;50.076;8.660;2023-09-07T02:46:35;14.20;1.00
3778;DHT22;1904;50.076;8.660;2023-09-07T02:49:11;14.20;1.00
3778;DHT22;1904;50.076;8.660;2023-09-07T02:51:47;14.20;1.00
3778;DHT22;1904;50.076;8.660;2023-09-07T02:54:41;14.20;1.00
3778;DHT22;1904;50.076;8.660;2023-09-07T02:57:17;14.20;1.00
3778;DHT22;1904;50.076;8.660;2023-09-07T02:59:42;14.80;1.00
3778;DHT22;1904;50.076;8.660;2023-09-07T03:02:23;14.10;1.00
3778;DHT22;1904;50.076;8.660;2023-09-07T03:04:54;14.20;1.00
3778;DHT22;1904;50.076;8.660;2023-09-07T03:07:23;14.10;1.00
3778;DHT22;1904;50.076;8.660;2023-09-07T03:09:53;14.10;1.00
3778;DHT22;1904;50.076;8.660;2023-09-07T03:12:18;14.10;1.00
3778;DHT22;1904;50.076;8.660;2023-09-07T03:18:34;14.10;1.00
3778;DHT22;1904;50.076;8.660;2023-09-07T03:21:22;14.10;1.00
3778;DHT22;1904;50.076;8.660;2023-09-07T03:23:59;14.10;1.00
3778;DHT22;1904;50.076;8.660;2023-09-07T03:26:29;14.00;1.00
3778;DHT22;1904;50.076;8.660;2023-09-07T03:29:11;14.20;1.00
3778;DHT22;1904;50.076;8.660;2023-09-07T03:34:59;14.10;1.00
3778;DHT22;1904;50.076;8.660;2023-09-07T03:37:35;14.10;1.00
3778;DHT22;1904;50.076;8.660;2023-09-07T03:40:02;14.20;1.00
3778;DHT22;1904;50.076;8.660;2023-09-07T03:42:41;14.20;1.00
3778;DHT22;1904;50.076;8.660;2023-09-07T03:48:29;14.10;1.00
3778;DHT22;1904;50.076;8.660;2023-09-07T03:51:16;14.10;1.00
3778;DHT22;1904;50.076;8.660;2023-09-07T03:53:53;14.00;1.00
3778;DHT22;1904;50.076;8.660;2023-09-07T03:56:29;14.00;1.00
3778;DHT22;1904;50.076;8.660;2023-09-07T04:02:17;14.00;1.00
3778;DHT22;1904;50.076;8.660;2023-09-07T04:18:17;13.80;1.00
3778;DHT22;1904;50.076;8.660;2023-09-07T04:24:05;13.80;1.00
3778;DHT22;1904;50.076;8.660;2023-09-07T04:26:52;13.80;1.00
3778;DHT22;1904;50.076;8.660;2023-09-07T04:32:40;13.60;1.00
3778;DHT22;1904;50.076;8.660;2023-09-07T04:38:28;13.60;1.00
3778;DHT22;1904;50.076;8.660;2023-09-07T04:46:47;13.60;1.00
3778;DHT22;1904;50.076;8.660;2023-09-07T04:49:29;13.60;1.00
3778;DHT22;1904;50.076;8.660;2023-09-07T04:52:05;13.60;1.00
3778;DHT22;1904;50.076;8.660;2023-09-07T04:54:30;13.60;1.00
3778;DHT22;1904;50.076;8.660;2023-09-07T05:00:46;13.60;1.00
3778;DHT22;1904;50.076;8.660;2023-09-07T05:06:34;13.60;1.00
3778;DHT22;1904;50.076;8.660;2023-09-07T05:09:03;13.50;1.00
3778;DHT22;1904;50.076;8.660;2023-09-07T05:11:41;13.60;1.00
3778;DHT22;1904;50.076;8.660;2023-09-07T05:17:28;13.70;1.00
3778;DHT22;1904;50.076;8.660;2023-09-07T05:30:22;13.90;1.00
3778;DHT22;1904;50.076;8.660;2023-09-07T05:33:11;13.80;2.10
3778;DHT22;1904;50.076;8.660;2023-09-07T05:39:05;14.00;4.40
3778;DHT22;1904;50.076;8.660;2023-09-07T05:42:04;14.10;6.80
3778;DHT22;1904;50.076;8.660;2023-09-07T05:47:52;14.20;5.60
3778;DHT22;1904;50.076;8.660;2023-09-07T05:53:39;14.40;7.30
3778;DHT22;1904;50.076;8.660;2023-09-07T05:56:17;14.50;6.70
3778;DHT22;1904;50.076;8.660;2023-09-07T05:59:04;14.80;6.90
3778;DHT22;1904;50.076;8.660;2023-09-07T06:01:41;14.60;7.50
3778;DHT22;1904;50.076;8.660;2023-09-07T06:07:35;14.80;8.50
3778;DHT22;1904;50.076;8.660;2023-09-07T06:10:29;15.00;5.50
3778;DHT22;1904;50.076;8.660;2023-09-07T06:16:05;15.20;5.30
3778;DHT22;1904;50.076;8.660;2023-09-07T06:18:30;15.20;4.70
3778;DHT22;1904;50.076;8.660;2023-09-07T06:21:11;15.30;7.00
3778;DHT22;1904;50.076;8.660;2023-09-07T06:23:58;15.70;6.30
3778;DHT22;1904;50.076;8.660;2023-09-07T06:26:24;15.50;5.60
3778;DHT22;1904;50.076;8.660;2023-09-07T06:29:05;15.70;4.80
3778;DHT22;1904;50.076;8.660;2023-09-07T06:31:35;15.80;3.90
3778;DHT22;1904;50.076;8.660;2023-09-07T06:34:22;15.90;1.70
3778;DHT22;1904;50.076;8.660;2023-09-07T06:37:05;16.00;1.00
3778;DHT22;1904;50.076;8.660;2023-09-07T06:39:35;16.20;1.00
3778;DHT22;1904;50.076;8.660;2023-09-07T06:48:05;16.70;1.00
3778;DHT22;1904;50.076;8.660;2023-09-07T06:54:11;17.00;1.00
3778;DHT22;1904;50.076;8.660;2023-09-07T07:00:34;17.50;1.00
3778;DHT22;1904;50.076;8.660;2023-09-07T07:06:12;17.70;1.00
3778;DHT22;1904;50.076;8.660;2023-09-07T07:09:05;17.90;1.00
3778;DHT22;1904;50.076;8.660;2023-09-07T07:11:47;18.00;1.00
3778;DHT22;1904;50.076;8.660;2023-09-07T07:14:34;18.20;1.00
3778;DHT22;1904;50.076;8.660;2023-09-07T07:17:00;18.30;1.00
3778;DHT22;1904;50.076;8.660;2023-09-07T07:19:30;18.50;1.00
3778;DHT22;1904;50.076;8.660;2023-09-07T07:22:05;18.60;1.00
3778;DHT22;1904;50.076;8.660;2023-09-07T07:24:35;18.70;1.00
3778;DHT22;1904;50.076;8.660;2023-09-07T07:27:05;18.90;1.00
3778;DHT22;1904;50.076;8.660;2023-09-07T07:29:47;19.10;1.00
3778;DHT22;1904;50.076;8.660;2023-09-07T07:32:23;19.20;1.00
3778;DHT22;1904;50.076;8.660;2023-09-07T07:35:05;19.40;1.00
3778;DHT22;1904;50.076;8.660;2023-09-07T07:40:05;19.70;1.00
3778;DHT22;1904;50.076;8.660;2023-09-07T07:42:35;19.80;1.00
3778;DHT22;1904;50.076;8.660;2023-09-07T07:45:05;19.90;1.00
3778;DHT22;1904;50.076;8.660;2023-09-07T07:47:31;20.10;1.00
3778;DHT22;1904;50.076;8.660;2023-09-07T07:50:05;20.20;1.00
3778;DHT22;1904;50.076;8.660;2023-09-07T07:52:52;20.30;1.00
3778;DHT22;1904;50.076;8.660;2023-09-07T07:55:29;20.50;1.00
3778;DHT22;1904;50.076;8.660;2023-09-07T08:01:18;20.80;1.00
3778;DHT22;1904;50.076;8.660;2023-09-07T08:06:54;21.00;1.00
3778;DHT22;1904;50.076;8.660;2023-09-07T08:09:30;21.20;1.00
3778;DHT22;1904;50.076;8.660;2023-09-07T08:11:59;21.30;1.00
3778;DHT22;1904;50.076;8.660;2023-09-07T08:14:35;21.40;1.00
3778;DHT22;1904;50.076;8.660;2023-09-07T08:17:34;21.50;1.00
3778;DHT22;1904;50.076;8.660;2023-09-07T08:20:24;21.60;1.00
3778;DHT22;1904;50.076;8.660;2023-09-07T08:23:10;21.70;1.00
3778;DHT22;1904;50.076;8.660;2023-09-07T08:28:35;22.00;1.00
3778;DHT22;1904;50.076;8.660;2023-09-07T08:31:05;22.00;1.00
3778;DHT22;1904;50.076;8.660;2023-09-07T08:33:52;22.00;1.00
3778;DHT22;1904;50.076;8.660;2023-09-07T08:36:35;22.20;1.00
3778;DHT22;1904;50.076;8.660;2023-09-07T08:48:04;22.60;1.00
3778;DHT22;1904;50.076;8.660;2023-09-07T08:50:31;22.70;1.00
3778;DHT22;1904;50.076;8.660;2023-09-07T08:53:05;22.80;1.00
3778;DHT22;1904;50.076;8.660;2023-09-07T08:55:35;22.90;1.00
3778;DHT22;1904;50.076;8.660;2023-09-07T09:00:36;23.20;1.00
3778;DHT22;1904;50.076;8.660;2023-09-07T09:06:24;23.40;1.00
3778;DHT22;1904;50.076;8.660;2023-09-07T09:09:05;23.50;1.00
3778;DHT22;1904;50.076;8.660;2023-09-07T09:11:35;23.60;1.00
3778;DHT22;1904;50.076;8.660;2023-09-07T09:14:05;23.70;1.00
3778;DHT22;1904;50.076;8.660;2023-09-07T09:16:35;23.90;1.00
3778;DHT22;1904;50.076;8.660;2023-09-07T09:19:00;23.90;1.00
3778;DHT22;1904;50.076;8.660;2023-09-07T09:21:35;23.90;1.00
3778;DHT22;1904;50.076;8.660;2023-09-07T09:24:10;24.10;1.00
3778;DHT22;1904;50.076;8.660;2023-09-07T09:30:22;24.20;1.00
3778;DHT22;1904;50.076;8.660;2023-09-07T09:32:48;24.30;1.00
3778;DHT22;1904;50.076;8.660;2023-09-07T09:35:42;24.40;1.00
3778;DHT22;1904;50.076;8.660;2023-09-07T09:38:23;24.50;1.00
3778;DHT22;1904;50.076;8.660;2023-09-07T09:44:29;24.70;1.00
3778;DHT22;1904;50.076;8.660;2023-09-07T09:53:42;24.90;1.00
3778;DHT22;1904;50.076;8.660;2023-09-07T09:59:35;25.20;1.00
3778;DHT22;1904;50.076;8.660;2023-09-07T10:09:06;25.60;1.00
3778;DHT22;1904;50.076;8.660;2023-09-07T10:11:52;25.70;1.00
3778;DHT22;1904;50.076;8.660;2023-09-07T10:14:49;25.60;1.00
3778;DHT22;1904;50.076;8.660;2023-09-07T10:20:24;25.80;1.00
3778;DHT22;1904;50.076;8.660;2023-09-07T10:23:04;26.00;1.00
3778;DHT22;1904;50.076;8.660;2023-09-07T10:25:53;26.00;1.00
3778;DHT22;1904;50.076;8.660;2023-09-07T10:28:20;26.20;1.00
3778;DHT22;1904;50.076;8.660;2023-09-07T10:31:06;26.20;1.00
3778;DHT22;1904;50.076;8.660;2023-09-07T10:36:41;26.40;1.00
3778;DHT22;1904;50.076;8.660;2023-09-07T10:39:11;26.50;1.00
3778;DHT22;1904;50.076;8.660;2023-09-07T10:45:09;26.70;1.00
3778;DHT22;1904;50.076;8.660;2023-09-07T10:47:45;26.80;1.00
3778;DHT22;1904;50.076;8.660;2023-09-07T10:50:17;26.80;1.00
3778;DHT22;1904;50.076;8.660;2023-09-07T10:59:30;27.10;1.00
3778;DHT22;1904;50.076;8.660;2023-09-07T11:12:12;27.70;1.00
3778;DHT22;1904;50.076;8.660;2023-09-07T11:14:47;27.70;1.00
3778;DHT22;1904;50.076;8.660;2023-09-07T11:24:10;27.90;1.00
3778;DHT22;1904;50.076;8.660;2023-09-07T11:26:51;28.00;1.00
3778;DHT22;1904;50.076;8.660;2023-09-07T11:29:17;28.00;1.00
3778;DHT22;1904;50.076;8.660;2023-09-07T11:31:44;28.10;1.00
3778;DHT22;1904;50.076;8.660;2023-09-07T11:34:12;28.30;1.00
3778;DHT22;1904;50.076;8.660;2023-09-07T11:36:39;28.30;1.00
3778;DHT22;1904;50.076;8.660;2023-09-07T11:39:15;28.40;1.00
3778;DHT22;1904;50.076;8.660;2023-09-07T11:41:51;28.50;1.00
3778;DHT22;1904;50.076;8.660;2023-09-07T11:51:26;28.60;1.00
3778;DHT22;1904;50.076;8.660;2023-09-07T11:57:14;28.70;1.00
3778;DHT22;1904;50.076;8.660;2023-09-07T11:59:51;28.80;1.00
3778;DHT22;1904;50.076;8.660;2023-09-07T12:02:17;28.90;1.00
3778;DHT22;1904;50.076;8.660;2023-09-07T12:08:05;29.20;1.00
3778;DHT22;1904;50.076;8.660;2023-09-07T12:10:39;29.20;1.00
3778;DHT22;1904;50.076;8.660;2023-09-07T12:13:05;29.30;1.00
3778;DHT22;1904;50.076;8.660;2023-09-07T12:15:30;29.30;1.00
3778;DHT22;1904;50.076;8.660;2023-09-07T12:18:15;29.40;1.00
3778;DHT22;1904;50.076;8.660;2023-09-07T12:21:08;29.50;1.00
3778;DHT22;1904;50.076;8.660;2023-09-07T12:24:09;29.50;1.00
3778;DHT22;1904;50.076;8.660;2023-09-07T12:26:45;29.60;1.00
3778;DHT22;1904;50.076;8.660;2023-09-07T12:29:21;29.60;1.00
3778;DHT22;1904;50.076;8.660;2023-09-07T12:31:57;29.70;1.00
3778;DHT22;1904;50.076;8.660;2023-09-07T12:34:44;29.80;1.00
3778;DHT22;1904;50.076;8.660;2023-09-07T12:37:44;29.70;1.00
3778;DHT22;1904;50.076;8.660;2023-09-07T12:40:15;29.80;1.00
3778;DHT22;1904;50.076;8.660;2023-09-07T12:43:02;29.80;1.00
3778;DHT22;1904;50.076;8.660;2023-09-07T12:45:39;29.80;1.00
3778;DHT22;1904;50.076;8.660;2023-09-07T12:51:51;30.00;1.00
3778;DHT22;1904;50.076;8.660;2023-09-07T12:54:21;30.00;1.00
3778;DHT22;1904;50.076;8.660;2023-09-07T13:13:28;30.10;1.00
3778;DHT22;1904;50.076;8.660;2023-09-07T13:16:27;30.20;1.00
3778;DHT22;1904;50.076;8.660;2023-09-07T13:22:27;30.20;1.00
3778;DHT22;1904;50.076;8.660;2023-09-07T13:28:21;30.30;1.00
3778;DHT22;1904;50.076;8.660;2023-09-07T13:33:23;30.40;1.00
3778;DHT22;1904;50.076;8.660;2023-09-07T13:36:22;30.40;1.00
3778;DHT22;1904;50.076;8.660;2023-09-07T13:38:51;30.50;1.00
3778;DHT22;1904;50.076;8.660;2023-09-07T13:41:45;30.60;1.00
3778;DHT22;1904;50.076;8.660;2023-09-07T13:44:13;30.70;1.00
3778;DHT22;1904;50.076;8.660;2023-09-07T13:50:21;30.60;1.00
3778;DHT22;1904;50.076;8.660;2023-09-07T13:56:33;30.70;1.00
3778;DHT22;1904;50.076;8.660;2023-09-07T13:59:15;30.70;1.00
3778;DHT22;1904;50.076;8.660;2023-09-07T14:02:03;30.70;1.00
3778;DHT22;1904;50.076;8.660;2023-09-07T14:07:57;30.70;1.00
3778;DHT22;1904;50.076;8.660;2023-09-07T14:10:23;30.70;1.00
3778;DHT22;1904;50.076;8.660;2023-09-07T14:12:48;30.70;1.00
3778;DHT22;1904;50.076;8.660;2023-09-07T14:15:14;30.80;1.00
3778;DHT22;1904;50.076;8.660;2023-09-07T14:17:40;30.80;1.00
3778;DHT22;1904;50.076;8.660;2023-09-07T14:23:27;30.90;1.00
3778;DHT22;1904;50.076;8.660;2023-09-07T14:26:27;30.80;1.00
3778;DHT22;1904;50.076;8.660;2023-09-07T14:32:44;30.90;1.00
3778;DHT22;1904;50.076;8.660;2023-09-07T14:35:33;30.80;1.00
3778;DHT22;1904;50.076;8.660;2023-09-07T14:41:20;30.70;1.00
3778;DHT22;1904;50.076;8.660;2023-09-07T14:47:10;30.70;1.00
3778;DHT22;1904;50.076;8.660;2023-09-07T14:49:52;30.70;1.00
3778;DHT22;1904;50.076;8.660;2023-09-07T14:52:22;30.80;1.00
3778;DHT22;1904;50.076;8.660;2023-09-07T15:01:23;31.50;1.00
3778;DHT22;1904;50.076;8.660;2023-09-07T15:07:10;33.70;1.00
3778;DHT22;1904;50.076;8.660;2023-09-07T15:09:53;35.10;1.00
3778;DHT22;1904;50.076;8.660;2023-09-07T15:12:39;36.10;1.00
3778;DHT22;1904;50.076;8.660;2023-09-07T15:15:33;37.20;1.00
3778;DHT22;1904;50.076;8.660;2023-09-07T15:18:21;38.40;1.00
3778;DHT22;1904;50.076;8.660;2023-09-07T15:21:03;39.60;1.00
3778;DHT22;1904;50.076;8.660;2023-09-07T15:23:33;40.50;1.00
3778;DHT22;1904;50.076;8.660;2023-09-07T15:29:21;41.70;1.00
3778;DHT22;1904;50.076;8.660;2023-09-07T15:35:27;43.50;1.00
3778;DHT22;1904;50.076;8.660;2023-09-07T15:37:57;43.90;1.00
3778;DHT22;1904;50.076;8.660;2023-09-07T15:43:44;44.70;1.00
3778;DHT22;1904;50.076;8.660;2023-09-07T15:46:10;45.30;1.00
3778;DHT22;1904;50.076;8.660;2023-09-07T15:48:52;45.30;1.00
3778;DHT22;1904;50.076;8.660;2023-09-07T15:51:27;45.50;1.00
3778;DHT22;1904;50.076;8.660;2023-09-07T15:53:52;45.80;1.00
3778;DHT22;1904;50.076;8.660;2023-09-07T15:56:39;45.90;1.00
3778;DHT22;1904;50.076;8.660;2023-09-07T15:59:27;46.00;1.00
3778;DHT22;1904;50.076;8.660;2023-09-07T16:01:57;46.10;1.00
3778;DHT22;1904;50.076;8.660;2023-09-07T16:04:33;46.20;1.00
3778;DHT22;1904;50.076;8.660;2023-09-07T16:07:15;46.40;1.00
3778;DHT22;1904;50.076;8.660;2023-09-07T16:09:51;46.50;1.00
3778;DHT22;1904;50.076;8.660;2023-09-07T16:18:44;44.70;1.00
3778;DHT22;1904;50.076;8.660;2023-09-07T16:24:32;42.00;1.00
3778;DHT22;1904;50.076;8.660;2023-09-07T16:30:10;41.50;1.00
3778;DHT22;1904;50.076;8.660;2023-09-07T16:32:36;42.00;1.00
3778;DHT22;1904;50.076;8.660;2023-09-07T16:38:28;42.80;1.00
3778;DHT22;1904;50.076;8.660;2023-09-07T16:40:57;43.30;1.00
3778;DHT22;1904;50.076;8.660;2023-09-07T16:43:34;43.00;1.00
3778;DHT22;1904;50.076;8.660;2023-09-07T16:49:21;40.80;1.00
3778;DHT22;1904;50.076;8.660;2023-09-07T17:01:45;35.80;1.00
3778;DHT22;1904;50.076;8.660;2023-09-07T17:07:32;33.50;1.00
3778;DHT22;1904;50.076;8.660;2023-09-07T17:13:20;31.50;1.00
3778;DHT22;1904;50.076;8.660;2023-09-07T17:16:15;30.10;1.00
3778;DHT22;1904;50.076;8.660;2023-09-07T17:19:09;29.90;1.00
3778;DHT22;1904;50.076;8.660;2023-09-07T17:21:35;29.20;1.00
3778;DHT22;1904;50.076;8.660;2023-09-07T17:24:21;28.70;1.00
3778;DHT22;1904;50.076;8.660;2023-09-07T17:30:08;27.70;1.00
3778;DHT22;1904;50.076;8.660;2023-09-07T17:39:39;26.30;1.00
3778;DHT22;1904;50.076;8.660;2023-09-07T17:45:45;25.60;1.00
3778;DHT22;1904;50.076;8.660;2023-09-07T17:48:27;25.20;1.00
3778;DHT22;1904;50.076;8.660;2023-09-07T17:50:57;24.90;1.00
3778;DHT22;1904;50.076;8.660;2023-09-07T17:53:39;24.60;1.00
3778;DHT22;1904;50.076;8.660;2023-09-07T17:56:21;24.40;1.00
3778;DHT22;1904;50.076;8.660;2023-09-07T18:01:58;23.90;1.00
3778;DHT22;1904;50.076;8.660;2023-09-07T18:14:29;23.00;1.00
3778;DHT22;1904;50.076;8.660;2023-09-07T18:26:54;22.20;1.00
3778;DHT22;1904;50.076;8.660;2023-09-07T18:32:45;21.90;1.00
3778;DHT22;1904;50.076;8.660;2023-09-07T18:35:45;21.80;1.00
3778;DHT22;1904;50.076;8.660;2023-09-07T18:44:38;21.30;1.00
3778;DHT22;1904;50.076;8.660;2023-09-07T18:56:50;20.90;1.00
3778;DHT22;1904;50.076;8.660;2023-09-07T18:59:16;20.80;1.00
3778;DHT22;1904;50.076;8.660;2023-09-07T19:01:45;20.70;1.00
3778;DHT22;1904;50.076;8.660;2023-09-07T19:04:21;20.70;1.00
3778;DHT22;1904;50.076;8.660;2023-09-07T19:07:09;20.60;1.00
3778;DHT22;1904;50.076;8.660;2023-09-07T19:09:53;20.50;1.00
3778;DHT22;1904;50.076;8.660;2023-09-07T19:12:19;20.40;1.00
3778;DHT22;1904;50.076;8.660;2023-09-07T19:18:06;20.30;1.00
3778;DHT22;1904;50.076;8.660;2023-09-07T19:21:09;20.20;1.00
3778;DHT22;1904;50.076;8.660;2023-09-07T19:30:02;19.90;1.00
3778;DHT22;1904;50.076;8.660;2023-09-07T19:33:03;19.80;1.00
3778;DHT22;1904;50.076;8.660;2023-09-07T19:38:53;19.70;1.00
3778;DHT22;1904;50.076;8.660;2023-09-07T19:48:03;19.50;1.00
3778;DHT22;1904;50.076;8.660;2023-09-07T19:53:46;19.40;1.00
3778;DHT22;1904;50.076;8.660;2023-09-07T19:56:16;19.30;1.00
3778;DHT22;1904;50.076;8.660;2023-09-07T19:58:45;19.20;1.00
3778;DHT22;1904;50.076;8.660;2023-09-07T20:01:21;19.20;1.00
3778;DHT22;1904;50.076;8.660;2023-09-07T20:03:52;19.10;1.00
3778;DHT22;1904;50.076;8.660;2023-09-07T20:06:27;19.10;1.00
3778;DHT22;1904;50.076;8.660;2023-09-07T20:09:15;19.00;1.00
3778;DHT22;1904;50.076;8.660;2023-09-07T20:12:15;18.90;1.00
3778;DHT22;1904;50.076;8.660;2023-09-07T20:14:57;18.90;1.00
3778;DHT22;1904;50.076;8.660;2023-09-07T20:19:57;18.70;1.00
3778;DHT22;1904;50.076;8.660;2023-09-07T20:22:36;18.70;1.00
3778;DHT22;1904;50.076;8.660;2023-09-07T20:25:09;18.70;1.00
3778;DHT22;1904;50.076;8.660;2023-09-07T20:27:39;18.60;1.00
3778;DHT22;1904;50.076;8.660;2023-09-07T20:30:05;18.60;1.00
3778;DHT22;1904;50.076;8.660;2023-09-07T20:32:51;18.50;1.00
3778;DHT22;1904;50.076;8.660;2023-09-07T20:35:16;18.40;1.00
3778;DHT22;1904;50.076;8.660;2023-09-07T20:38:00;18.40;1.00
3778;DHT22;1904;50.076;8.660;2023-09-07T20:40:45;18.30;1.00
3778;DHT22;1904;50.076;8.660;2023-09-07T20:43:11;18.30;1.00
3778;DHT22;1904;50.076;8.660;2023-09-07T20:45:40;18.30;1.00
3778;DHT22;1904;50.076;8.660;2023-09-07T20:48:06;18.20;1.00
3778;DHT22;1904;50.076;8.660;2023-09-07T20:50:39;18.20;1.00
3778;DHT22;1904;50.076;8.660;2023-09-07T20:53:16;18.10;1.00
3778;DHT22;1904;50.076;8.660;2023-09-07T20:55:45;18.10;1.00
3778;DHT22;1904;50.076;8.660;2023-09-07T20:58:21;18.00;1.00
3778;DHT22;1904;50.076;8.660;2023-09-07T21:00:51;18.00;1.00
3778;DHT22;1904;50.076;8.660;2023-09-07T21:03:28;18.00;1.00
3778;DHT22;1904;50.076;8.660;2023-09-07T21:05:57;17.90;1.00
3778;DHT22;1904;50.076;8.660;2023-09-07T21:08:23;17.90;1.00
3778;DHT22;1904;50.076;8.660;2023-09-07T21:17:16;17.70;1.00
3778;DHT22;1904;50.076;8.660;2023-09-07T21:19:51;17.70;1.00
3778;DHT22;1904;50.076;8.660;2023-09-07T21:22:33;17.60;1.00
3778;DHT22;1904;50.076;8.660;2023-09-07T21:25:15;17.60;1.00
3778;DHT22;1904;50.076;8.660;2023-09-07T21:27:41;17.60;1.00
3778;DHT22;1904;50.076;8.660;2023-09-07T21:30:10;17.60;1.00
3778;DHT22;1904;50.076;8.660;2023-09-07T21:32:36;17.50;1.00
3778;DHT22;1904;50.076;8.660;2023-09-07T21:35:15;17.50;1.00
3778;DHT22;1904;50.076;8.660;2023-09-07T21:37:41;17.40;1.00
3778;DHT22;1904;50.076;8.660;2023-09-07T21:40:27;17.40;1.00
3778;DHT22;1904;50.076;8.660;2023-09-07T21:42:57;17.40;1.00
3778;DHT22;1904;50.076;8.660;2023-09-07T21:45:45;17.40;1.00
3778;DHT22;1904;50.076;8.660;2023-09-07T21:48:16;17.30;1.00
3778;DHT22;1904;50.076;8.660;2023-09-07T21:53:45;17.20;1.00
3778;DHT22;1904;50.076;8.660;2023-09-07T21:56:15;17.20;1.00
3778;DHT22;1904;50.076;8.660;2023-09-07T21:58:45;17.20;1.00
3778;DHT22;1904;50.076;8.660;2023-09-07T22:01:15;17.10;1.00
3778;DHT22;1904;50.076;8.660;2023-09-07T22:06:51;17.10;1.00
3778;DHT22;1904;50.076;8.660;2023-09-07T22:09:39;17.10;1.00
3778;DHT22;1904;50.076;8.660;2023-09-07T22:12:05;17.10;1.00
3778;DHT22;1904;50.076;8.660;2023-09-07T22:14:33;17.00;1.00
3778;DHT22;1904;50.076;8.660;2023-09-07T22:17:00;17.00;1.00
3778;DHT22;1904;50.076;8.660;2023-09-07T22:19:27;17.00;1.00
3778;DHT22;1904;50.076;8.660;2023-09-07T22:21:53;17.00;1.00
3778;DHT22;1904;50.076;8.660;2023-09-07T22:24:27;16.90;1.00
3778;DHT22;1904;50.076;8.660;2023-09-07T22:26:53;16.90;1.00
3778;DHT22;1904;50.076;8.660;2023-09-07T22:29:19;16.80;1.00
3778;DHT22;1904;50.076;8.660;2023-09-07T22:31:45;16.80;1.00
3778;DHT22;1904;50.076;8.660;2023-09-07T22:34:15;16.80;1.00
3778;DHT22;1904;50.076;8.660;2023-09-07T22:36:51;16.70;1.00
3778;DHT22;1904;50.076;8.660;2023-09-07T22:39:39;16.70;1.00
3778;DHT22;1904;50.076;8.660;2023-09-07T22:42:39;16.60;1.00
3778;DHT22;1904;50.076;8.660;2023-09-07T22:45:33;16.60;1.00
3778;DHT22;1904;50.076;8.660;2023-09-07T22:48:03;16.60;1.00
3778;DHT22;1904;50.076;8.660;2023-09-07T22:50:39;16.50;1.00
3778;DHT22;1904;50.076;8.660;2023-09-07T22:53:16;16.50;1.00
3778;DHT22;1904;50.076;8.660;2023-09-07T22:55:46;16.50;1.00
3778;DHT22;1904;50.076;8.660;2023-09-07T22:58:15;16.40;1.00
3778;DHT22;1904;50.076;8.660;2023-09-07T23:00:46;16.40;1.00
3778;DHT22;1904;50.076;8.660;2023-09-07T23:03:12;16.40;1.00
3778;DHT22;1904;50.076;8.660;2023-09-07T23:05:40;16.40;1.00
3778;DHT22;1904;50.076;8.660;2023-09-07T23:08:09;16.30;1.00
3778;DHT22;1904;50.076;8.660;2023-09-07T23:10:45;16.30;1.00
3778;DHT22;1904;50.076;8.660;2023-09-07T23:13:15;16.20;1.00
3778;DHT22;1904;50.076;8.660;2023-09-07T23:16:03;16.20;1.00
3778;DHT22;1904;50.076;8.660;2023-09-07T23:18:39;16.10;1.00
3778;DHT22;1904;50.076;8.660;2023-09-07T23:21:15;16.10;1.00
3778;DHT22;1904;50.076;8.660;2023-09-07T23:23:51;16.10;1.00
3778;DHT22;1904;50.076;8.660;2023-09-07T23:26:27;16.10;1.00
3778;DHT22;1904;50.076;8.660;2023-09-07T23:29:21;16.10;1.00
3778;DHT22;1904;50.076;8.660;2023-09-07T23:31:51;16.00;1.00
3778;DHT22;1904;50.076;8.660;2023-09-07T23:34:33;16.00;1.00
3778;DHT22;1904;50.076;8.660;2023-09-07T23:37:01;16.00;1.00
3778;DHT22;1904;50.076;8.660;2023-09-07T23:39:27;16.00;1.00
3778;DHT22;1904;50.076;8.660;2023-09-07T23:42:15;16.00;1.00
3778;DHT22;1904;50.076;8.660;2023-09-07T23:44:45;16.00;1.00
3778;DHT22;1904;50.076;8.660;2023-09-07T23:47:15;16.00;1.00
3778;DHT22;1904;50.076;8.660;2023-09-07T23:49:41;15.90;1.00
3778;DHT22;1904;50.076;8.660;2023-09-07T23:52:15;15.90;1.00
3778;DHT22;1904;50.076;8.660;2023-09-07T23:54:45;15.90;1.00
3778;DHT22;1904;50.076;8.660;2023-09-07T23:57:15;15.90;1.00
3778;DHT22;1904;50.076;8.660;2023-09-07T23:59:45;15.90;1.00
